Flight Track Log - Related Links

Times and Time Zones

All times are in EDT time to prevent confusion due to time zone crossing. See the DAL4034 flight status page for this flight to view local times or setup timezone preferences in your user account.

Time Position Orientation Groundspeed Altitude Reporting Facility
EDT Latitude Longitude Course Direction KTS MPH feet Rate Location/Type
Tue 12:57:33 PM 42.2028 -83.3553 176° South 147 169 1,300  Level Cleveland Center
Tue 12:58:40 PM 42.1486 -83.3506 176° South 206 237 3,200 1,588 Climbing Cleveland Center
Tue 12:59:15 PM 42.1294 -83.3436 165° South 186 214 4,000 1,672 Climbing Cleveland Center
Tue 12:59:41 PM 42.1050 -83.2939 124° Southeast 292 336 4,900 1,967 Climbing Cleveland Center
Tue 01:00:16 PM 42.0911 -83.2403 109° East 275 316 6,000 2,361 Climbing Cleveland Center
Tue 01:00:42 PM 42.0886 -83.1789 93° East 327 376 7,300 2,516 Climbing Cleveland Center
Tue 01:01:18 PM 42.1094 -83.1164 66° East 324 373 8,600 2,361 Climbing Cleveland Center
Tue 01:01:43 PM 42.1283 -83.0692 62° Northeast 330 380 9,700 1,935 Climbing Cleveland Center
Tue 01:02:20 PM 42.1525 -83.0089 62° Northeast 326 375 10,600 1,091 Climbing Cleveland Center
Tue 01:03:22 PM 42.2003 -82.8869 62° Northeast 367 422 11,500 1,065 Climbing Cleveland Center
Tue 01:04:24 PM 42.2533 -82.7525 62° Northeast 401 461 12,800 1,355 Climbing Cleveland Center
Tue 01:05:26 PM 42.3067 -82.6147 62° Northeast 411 473 14,300 1,463 Climbing Cleveland Center
Tue 01:06:27 PM 42.3656 -82.4439 65° Northeast 423 487 15,800 1,366 Climbing Cleveland Center
Tue 01:07:29 PM 42.3628 -82.2881 91° East 418 481 17,100 1,161 Climbing Cleveland Center
Tue 01:08:31 PM 42.3561 -82.1294 93° East 422 486 18,200 1,016 Climbing Cleveland Center
Tue 01:09:33 PM 42.3486 -81.9694 94° East 422 486 19,200 1,016 Climbing Cleveland Center
Tue 01:10:35 PM 42.3492 -81.8083 90° East 423 487 20,300 1,016 Climbing Cleveland Center
Tue 01:11:37 PM 42.3633 -81.6481 83° East 423 487 21,300 976 Climbing Cleveland Center
Tue 01:12:38 PM 42.3781 -81.4628 84° East 423 487 22,300 732 Climbing Cleveland Center
Tue 01:13:40 PM 42.3908 -81.3019 84° East 424 488 22,800 484 Climbing Cleveland Center
Tue 01:14:42 PM 42.4044 -81.1383 84° East 431 496 23,300 484 Climbing Cleveland Center
Tue 01:15:44 PM 42.4181 -80.9733 84° East 434 499 23,800 484 Climbing Cleveland Center
Tue 01:16:46 PM 42.4306 -80.8067 84° East 439 505 24,300 484 Climbing Cleveland Center
Tue 01:17:48 PM 42.4431 -80.6397 84° East 440 506 24,800 532 Climbing Cleveland Center
Tue 01:18:50 PM 42.4553 -80.4703 84° East 443 510 25,400 532 Climbing Cleveland Center
Tue 01:19:52 PM 42.4675 -80.3019 84° East 447 514 25,900 488 Climbing Cleveland Center
Tue 01:20:53 PM 42.4803 -80.1342 84° East 444 511 26,400 488 Climbing Cleveland Center
Tue 01:21:55 PM 42.4919 -79.9483 85° East 446 513 26,900 290 Climbing Cleveland Center
Tue 01:22:57 PM 42.5031 -79.7794 85° East 448 516 27,000 48 Climbing Cleveland Center
Tue 01:23:59 PM 42.5150 -79.6083 85° East 455 524 27,000  Level Cleveland Center
Tue 01:25:01 PM 42.5275 -79.3986 85° East 463 533 27,000  Level Cleveland Center
Tue 01:26:03 PM 42.5386 -79.2228 85° East 469 540 27,000 242 Level Cleveland Center
Tue 01:27:05 PM 42.5486 -79.0481 85° East 468 539 27,500 484 Climbing Cleveland Center
Tue 01:28:07 PM 42.5583 -78.8761 86° East 460 529 28,000 484 Climbing Cleveland Center
Tue 01:29:09 PM 42.5689 -78.7075 85° East 453 521 28,500 484 Climbing Cleveland Center
Tue 01:30:11 PM 42.5794 -78.5403 85° East 446 513 29,000 242 Climbing Cleveland Center
Tue 01:31:13 PM 42.5883 -78.3728 86° East 445 512 29,000  Level Cleveland Center
Tue 01:32:15 PM 42.5997 -78.1669 86° East 454 522 29,000  Level Cleveland Center
Tue 01:33:17 PM 42.6092 -77.9931 86° East 461 531 29,000  Level Cleveland Center
Tue 01:34:19 PM 42.6175 -77.8181 86° East 464 534 29,000  Level Cleveland Center
Tue 01:35:20 PM 42.6278 -77.6183 86° East 473 544 29,000  Level Cleveland Center
Tue 01:36:22 PM 42.6356 -77.4406 87° East 476 548 29,000  Level Cleveland Center
Tue 01:37:24 PM 42.6433 -77.2647 86° East 474 545 29,000  Level Cleveland Center
Tue 01:38:26 PM 42.6517 -77.0878 86° East 474 545 29,000  Level Cleveland Center
Tue 01:39:28 PM 42.6594 -76.9111 87° East 473 544 29,000  Level Cleveland Center
Tue 01:40:30 PM 42.6658 -76.7336 87° East 473 544 29,000  Level Cleveland Center
Tue 01:41:32 PM 42.6747 -76.5189 87° East 473 544 29,000  Level Cleveland Center
Tue 01:42:34 PM 42.6803 -76.3411 88° East 472 543 29,000  Level Cleveland Center
Tue 01:43:36 PM 42.6881 -76.1644 87° East 472 543 29,000  Level Cleveland Center
Tue 01:44:37 PM 42.6944 -75.9881 87° East 472 543 29,000  Level Cleveland Center
Tue 01:45:39 PM 42.7000 -75.8100 88° East 472 543 29,000  Level Cleveland Center
Tue 01:46:58 PM 42.7083 -75.5594 87° East 473 544 29,000  Level Boston Center
Tue 01:48:02 PM 42.7133 -75.3833 88° East 473 544 29,000  Level Boston Center
Tue 01:49:03 PM 42.7183 -75.2031 88° East 473 544 29,000  Level Boston Center
Tue 01:50:04 PM 42.7242 -75.0050 88° East 473 544 29,000  Level Boston Center
Tue 01:51:05 PM 42.7278 -74.8269 88° East 473 544 29,000  Level Boston Center
Tue 01:52:06 PM 42.7319 -74.6500 88° East 473 544 29,000  Level Boston Center
Tue 01:53:09 PM 42.7350 -74.4717 89° East 473 544 29,000  Level Boston Center
Tue 01:54:10 PM 42.7378 -74.2942 89° East 473 544 29,000  Level Boston Center
Tue 01:55:10 PM 42.7419 -74.1136 88° East 473 544 29,000 -145 Level Boston Center
Tue 01:56:14 PM 42.7453 -73.9353 88° East 473 544 28,700 -864 Descending Boston Center
Tue 01:57:15 PM 42.7481 -73.7550 89° East 476 548 27,200 -843 Descending Boston Center
Tue 01:58:15 PM 42.7553 -73.5789 87° East 472 543 27,000 -1,131 Descending Boston Center
Tue 01:59:17 PM 42.7631 -73.3672 87° East 466 536 24,900 -1,610 Descending Boston Center
Tue 02:00:18 PM 42.7692 -73.1975 87° East 455 524 23,700 -1,328 Descending Boston Center
Tue 02:01:19 PM 42.7739 -73.0308 88° East 442 509 22,200 -1,415 Descending Boston Center
Tue 02:02:21 PM 42.7806 -72.8806 86° East 437 503 20,800 -2,049 Descending Boston Center
Tue 02:03:22 PM 42.8011 -72.7083 81° East 421 484 18,000 -2,544 Descending Boston Center
Tue 02:04:26 PM 42.8164 -72.5625 82° East 394 453 15,500 -2,419 Descending Boston Center
Tue 02:05:26 PM 42.8314 -72.4178 82° East 388 447 13,000 -2,331 Descending Boston Center
Tue 02:06:27 PM 42.8492 -72.2628 81° East 380 437 10,800 -1,536 Descending Boston Center
Tue 02:07:31 PM 42.8622 -72.1319 82° East 325 374 9,800 -864 Descending Boston Center
Tue 02:08:32 PM 42.8731 -72.0194 82° East 306 352 9,000 -446 Descending Boston Center
Tue 02:09:32 PM 42.8917 -71.8978 78° East 304 350 8,900 -677 Descending Boston Center
Tue 02:10:36 PM 42.9258 -71.7917 66° East 304 350 7,600 -1,306 Descending Boston Center
Tue 02:11:36 PM 42.9589 -71.6897 66° East 296 341 6,200 -1,475 Descending Boston Center
Tue 02:12:38 PM 42.9944 -71.5839 65° Northeast 286 329 4,600 -1,610 Descending Boston Center
Tue 02:13:39 PM 43.0269 -71.4881 65° Northeast 280 322 2,900 -1,016 Descending Boston Center
Tue 02:14:42 PM 43.0556 -71.4083 64° Northeast 231 266 2,500 -387 Descending Boston Center
Tue 02:15:43 PM 43.0222 -71.3725 142° Southeast 180 207 2,100 -590 Descending Boston Center
Tue 02:16:44 PM 42.9783 -71.3878 194° South 153 176 1,300 -787 Descending Boston Center
Tue 02:17:45 PM 42.9514 -71.4206 222° Southwest 132 152 500 -787 Descending Boston Center
Tue 02:19:00 PM 42.9328 -71.4358 203° Southwest  Level Estimated
Tue 02:26:00 PM 42.9328 -71.4358 203° Southwest  Level Estimated

Login

Don't have an account? Register now (free) for customized features, flight alerts, and more!